Terminal Aerodrome Forecast
Issued by NWS Binghamton, NY

Home | Current Version | Previous Version | Text Only | Print | Product List | Glossary On
Versions: 1 2 3 4 5 6 7 8 9 10 11 12 13 14 15 16 17 18 19
355
FTUS41 KBGM 201134
TAFBGM
TAF
KBGM 201134Z 2012/2112 20007KT P6SM SCT080 BKN120 WS020/25040KT
     FM201500 22011G17KT P6SM BKN080
     FM210100 20009KT P6SM BKN100 WS020/24040KT=

USA.gov is the U.S. government's official web portal to all federal, state and local government web resources and services.